createdAt,value
2018-07-03T00:01:20.935Z,6.00
2018-07-03T00:03:48.522Z,5.47
2018-07-03T00:06:16.161Z,5.53
2018-07-03T00:08:43.767Z,5.47
2018-07-03T00:11:11.407Z,6.10
2018-07-03T00:13:39.037Z,5.80
2018-07-03T00:16:06.686Z,5.03
2018-07-03T00:18:34.292Z,5.70
2018-07-03T00:21:01.903Z,5.67
2018-07-03T00:23:29.473Z,5.40
2018-07-03T00:25:57.068Z,5.53
2018-07-03T00:28:24.726Z,5.30
2018-07-03T00:30:52.398Z,5.60
2018-07-03T00:33:20.042Z,5.80
2018-07-03T00:35:47.788Z,4.47
2018-07-03T00:38:15.468Z,5.63
2018-07-03T00:40:43.125Z,5.90
2018-07-03T00:43:10.699Z,6.00
2018-07-03T00:45:38.265Z,5.77
2018-07-03T00:48:05.918Z,5.87
2018-07-03T00:50:33.550Z,6.03
2018-07-03T00:53:01.152Z,5.80
2018-07-03T00:55:28.791Z,6.83
2018-07-03T00:57:56.396Z,5.70
2018-07-03T01:00:34.061Z,5.27
2018-07-03T01:03:02.542Z,6.00
2018-07-03T01:05:30.149Z,5.67
2018-07-03T01:07:58.164Z,5.67
2018-07-03T01:10:26.147Z,5.70
2018-07-03T01:12:54.201Z,5.33
2018-07-03T01:15:21.769Z,5.13
2018-07-03T01:17:49.411Z,5.97
2018-07-03T01:20:17.089Z,6.40
2018-07-03T01:22:44.686Z,5.90
2018-07-03T01:25:12.306Z,5.80
2018-07-03T01:27:39.966Z,6.33
2018-07-03T01:30:07.882Z,5.70
2018-07-03T01:32:35.497Z,6.53
2018-07-03T01:35:03.157Z,5.57
2018-07-03T01:37:30.829Z,5.67
2018-07-03T01:39:58.410Z,5.50
2018-07-03T01:42:26.047Z,6.20
2018-07-03T01:44:53.629Z,5.97
2018-07-03T01:47:21.221Z,4.73
2018-07-03T01:49:48.847Z,5.57
2018-07-03T01:52:16.512Z,6.60
2018-07-03T01:54:44.164Z,5.27
2018-07-03T01:57:11.816Z,5.50
2018-07-03T01:59:39.395Z,5.97
2018-07-03T02:02:06.994Z,5.47
2018-07-03T02:04:34.611Z,5.53
2018-07-03T02:07:02.204Z,6.00
2018-07-03T02:09:29.821Z,5.67
2018-07-03T02:11:57.393Z,6.40
2018-07-03T02:14:24.988Z,5.47
2018-07-03T02:16:52.649Z,5.43
2018-07-03T02:19:20.586Z,5.57
2018-07-03T02:21:48.454Z,6.37
2018-07-03T02:24:16.357Z,5.73
2018-07-03T02:26:44.205Z,6.13
2018-07-03T02:29:12.204Z,5.80
2018-07-03T02:31:40.021Z,5.50
2018-07-03T02:34:07.889Z,5.40
2018-07-03T02:36:35.657Z,6.10
2018-07-03T02:39:03.950Z,6.10
2018-07-03T02:41:31.688Z,5.27
2018-07-03T02:43:59.452Z,6.10
2018-07-03T02:46:27.246Z,5.73
2018-07-03T02:48:55.205Z,5.90
2018-07-03T02:51:22.795Z,5.30
2018-07-03T02:53:50.394Z,5.27
2018-07-03T02:56:17.974Z,5.53
2018-07-03T02:58:45.566Z,6.40
2018-07-03T03:01:13.185Z,6.00
2018-07-03T03:03:40.781Z,6.37
2018-07-03T03:06:08.419Z,5.83
2018-07-03T03:08:36.098Z,5.77
2018-07-03T03:11:03.773Z,5.87
2018-07-03T03:13:31.422Z,6.00
2018-07-03T03:15:59.024Z,5.67
2018-07-03T03:18:26.641Z,5.10
2018-07-03T03:20:54.291Z,5.77
2018-07-03T03:23:21.860Z,6.00
2018-07-03T03:25:49.436Z,6.67
2018-07-03T03:28:17.069Z,6.00
2018-07-03T03:30:44.622Z,5.87
2018-07-03T03:33:12.227Z,5.77
2018-07-03T03:35:39.865Z,5.93
2018-07-03T03:38:07.512Z,5.90
2018-07-03T03:40:35.139Z,6.27
2018-07-03T03:43:02.735Z,5.90
2018-07-03T03:45:30.327Z,5.93
2018-07-03T03:47:57.970Z,5.77
2018-07-03T03:50:25.558Z,6.20
2018-07-03T03:52:53.189Z,6.23
2018-07-03T03:55:20.777Z,5.67
2018-07-03T03:57:48.420Z,6.67
2018-07-03T04:00:16.088Z,5.87
2018-07-03T04:02:43.780Z,5.60
2018-07-03T04:05:11.421Z,6.77
2018-07-03T04:07:39.057Z,6.00
2018-07-03T04:10:06.652Z,6.23
2018-07-03T04:12:34.281Z,6.07
2018-07-03T04:15:01.959Z,6.07
2018-07-03T04:17:29.553Z,6.60
2018-07-03T04:19:57.162Z,6.33
2018-07-03T04:22:24.825Z,5.80
2018-07-03T04:24:52.397Z,6.20
2018-07-03T04:27:20.052Z,6.40
2018-07-03T04:29:47.927Z,6.27
2018-07-03T04:32:15.620Z,6.33
2018-07-03T04:34:43.240Z,6.70
2018-07-03T04:37:10.908Z,6.43
2018-07-03T04:39:38.485Z,6.20
2018-07-03T04:42:06.165Z,6.60
2018-07-03T04:44:33.786Z,5.97
2018-07-03T04:47:01.370Z,7.13
2018-07-03T04:49:28.940Z,5.80
2018-07-03T04:51:56.571Z,6.10
2018-07-03T04:54:24.250Z,6.60
2018-07-03T04:56:51.816Z,6.80
2018-07-03T04:59:19.381Z,6.27
2018-07-03T05:01:46.936Z,5.63
2018-07-03T05:04:14.493Z,5.90
2018-07-03T05:06:42.071Z,5.87
2018-07-03T05:09:11.021Z,5.40
2018-07-03T05:11:38.582Z,5.90
2018-07-03T05:14:06.239Z,5.20
2018-07-03T05:16:33.815Z,5.80
2018-07-03T05:19:01.368Z,5.77
2018-07-03T05:21:29.027Z,5.60
2018-07-03T05:23:56.553Z,5.90
2018-07-03T05:26:24.174Z,5.40
2018-07-03T05:28:51.809Z,6.50
2018-07-03T05:31:19.381Z,6.30
2018-07-03T05:33:46.955Z,6.33
2018-07-03T05:36:14.516Z,5.77
2018-07-03T05:38:42.099Z,5.93
2018-07-03T05:41:09.645Z,5.97
2018-07-03T05:43:37.288Z,5.73
2018-07-03T05:46:04.933Z,5.53
2018-07-03T05:48:32.505Z,5.47
2018-07-03T05:51:00.062Z,5.77
2018-07-03T05:53:27.632Z,6.40
2018-07-03T05:55:55.200Z,5.47
2018-07-03T05:58:22.847Z,5.87
2018-07-03T06:00:50.499Z,5.60
2018-07-03T06:03:18.072Z,6.30
2018-07-03T06:05:45.664Z,6.47
2018-07-03T06:08:13.290Z,6.60
2018-07-03T06:10:40.844Z,5.97
2018-07-03T06:13:08.433Z,5.83
2018-07-03T06:15:35.997Z,6.60
2018-07-03T06:18:03.633Z,5.73
2018-07-03T06:20:31.189Z,6.37
2018-07-03T06:22:58.790Z,5.43
2018-07-03T06:25:26.367Z,5.27
2018-07-03T06:27:53.968Z,5.80
2018-07-03T06:30:21.556Z,6.20
2018-07-03T06:32:49.354Z,5.97
2018-07-03T06:35:16.918Z,5.40
2018-07-03T06:37:44.771Z,5.53
2018-07-03T06:40:12.513Z,4.87
2018-07-03T06:42:40.375Z,5.07
2018-07-03T06:45:08.556Z,4.83
2018-07-03T06:47:36.436Z,5.33
2018-07-03T06:50:04.501Z,5.30
2018-07-03T06:52:32.343Z,5.57
2018-07-03T06:55:00.349Z,5.17
2018-07-03T06:57:28.216Z,5.00
2018-07-03T06:59:56.049Z,5.37
2018-07-03T07:02:24.017Z,5.63
2018-07-03T07:04:51.948Z,4.83
2018-07-03T07:07:19.756Z,5.23
2018-07-03T07:09:47.626Z,4.80
2018-07-03T07:12:15.508Z,4.23
2018-07-03T07:14:43.172Z,4.40
2018-07-03T07:17:10.735Z,4.47
2018-07-03T07:19:38.359Z,4.30
2018-07-03T07:22:05.934Z,4.67
2018-07-03T07:24:33.510Z,4.93
2018-07-03T07:27:01.240Z,5.00
2018-07-03T07:29:29.032Z,4.30
2018-07-03T07:31:56.694Z,4.73
2018-07-03T07:34:24.265Z,4.20
2018-07-03T07:36:51.816Z,4.30
2018-07-03T07:39:19.367Z,4.17
2018-07-03T07:41:46.920Z,4.87
2018-07-03T07:44:14.469Z,5.00
2018-07-03T07:46:42.037Z,4.60
2018-07-03T07:49:09.589Z,5.47
2018-07-03T07:51:37.154Z,5.00
2018-07-03T07:54:04.745Z,5.10
2018-07-03T07:56:32.336Z,4.50
2018-07-03T07:59:00.153Z,4.40
2018-07-03T08:01:27.710Z,4.30
2018-07-03T08:03:55.378Z,4.40
2018-07-03T08:06:23.244Z,3.63
2018-07-03T08:08:50.835Z,4.17
2018-07-03T08:11:18.456Z,3.37
2018-07-03T08:13:46.153Z,3.53
2018-07-03T08:16:13.715Z,3.10
2018-07-03T08:18:41.344Z,3.03
2018-07-03T08:21:09.300Z,3.43
2018-07-03T08:23:36.893Z,3.10
2018-07-03T08:26:04.693Z,2.83
2018-07-03T08:28:32.323Z,2.60
2018-07-03T08:30:59.958Z,2.67
2018-07-03T08:33:27.537Z,2.63
2018-07-03T08:35:55.185Z,2.40
2018-07-03T08:38:22.761Z,3.17
2018-07-03T08:40:50.411Z,3.27
2018-07-03T08:43:17.975Z,2.93
2018-07-03T08:45:45.543Z,2.93
2018-07-03T08:48:13.096Z,3.73
2018-07-03T08:50:40.747Z,2.93
2018-07-03T08:53:08.483Z,2.73
2018-07-03T08:55:36.078Z,3.20
2018-07-03T08:58:03.637Z,3.13
2018-07-03T09:00:31.207Z,3.00
2018-07-03T09:02:58.872Z,3.27
2018-07-03T09:05:26.425Z,3.37
2018-07-03T09:07:55.413Z,3.07
2018-07-03T09:10:22.968Z,3.20
2018-07-03T09:12:50.558Z,3.43
2018-07-03T09:15:18.121Z,2.97
2018-07-03T09:17:45.686Z,3.57
2018-07-03T09:20:13.238Z,3.27
2018-07-03T09:22:40.797Z,3.23
2018-07-03T09:25:08.361Z,3.57
2018-07-03T09:27:36.006Z,3.70
2018-07-03T09:30:03.667Z,3.27
2018-07-03T09:32:31.232Z,3.30
2018-07-03T09:34:58.795Z,3.70
2018-07-03T09:37:26.350Z,3.30
2018-07-03T09:39:54.072Z,3.40
2018-07-03T09:42:21.899Z,3.53
2018-07-03T09:44:49.943Z,3.30
2018-07-03T09:47:17.721Z,3.33
2018-07-03T09:49:45.563Z,2.80
2018-07-03T09:52:13.359Z,3.80
2018-07-03T09:54:41.274Z,3.03
2018-07-03T09:57:09.085Z,3.43
2018-07-03T09:59:36.944Z,2.83
2018-07-03T10:02:04.738Z,3.00
2018-07-03T10:04:32.563Z,3.67
2018-07-03T10:07:00.354Z,4.30
2018-07-03T10:09:28.194Z,4.30
2018-07-03T10:11:55.985Z,3.37
2018-07-03T10:14:23.736Z,3.40
2018-07-03T10:16:51.492Z,3.40
2018-07-03T10:19:19.248Z,3.30
2018-07-03T10:21:47.064Z,3.70
2018-07-03T10:24:14.896Z,4.10
2018-07-03T10:26:42.687Z,4.30
2018-07-03T10:29:10.520Z,4.17
2018-07-03T10:31:38.293Z,3.83
2018-07-03T10:34:06.330Z,3.70
2018-07-03T10:36:34.236Z,4.17
2018-07-03T10:39:02.095Z,3.40
2018-07-03T10:41:29.880Z,4.07
2018-07-03T10:43:57.730Z,3.90
2018-07-03T10:46:25.508Z,3.73
2018-07-03T10:48:53.395Z,3.30
2018-07-03T10:51:21.225Z,3.87
2018-07-03T10:53:49.105Z,3.80
2018-07-03T10:56:16.773Z,3.40
2018-07-03T10:58:44.688Z,3.30
2018-07-03T11:01:12.489Z,3.33
2018-07-03T11:03:40.364Z,2.83
2018-07-03T11:06:08.139Z,3.10
2018-07-03T11:08:36.031Z,3.17
2018-07-03T11:11:03.882Z,3.20
2018-07-03T11:13:31.736Z,3.77
2018-07-03T11:15:59.502Z,3.27
2018-07-03T11:18:27.370Z,3.10
2018-07-03T11:20:55.157Z,3.70
2018-07-03T11:23:23.023Z,3.33
2018-07-03T11:25:50.859Z,3.40
2018-07-03T11:28:18.740Z,3.07
2018-07-03T11:30:46.517Z,3.73
2018-07-03T11:33:14.484Z,3.50
2018-07-03T11:35:42.374Z,3.57
2018-07-03T11:38:10.227Z,3.30
2018-07-03T11:40:38.076Z,3.00
2018-07-03T11:43:05.986Z,3.73
2018-07-03T11:45:33.709Z,3.40
2018-07-03T11:48:01.633Z,3.30
2018-07-03T11:50:29.439Z,3.67
2018-07-03T11:52:57.307Z,3.63
2018-07-03T11:55:25.181Z,3.60
2018-07-03T11:57:53.151Z,3.07
2018-07-03T12:00:21.290Z,3.53
2018-07-03T12:02:49.114Z,4.40
2018-07-03T12:05:16.950Z,3.93
2018-07-03T12:07:44.814Z,3.87
2018-07-03T12:10:12.590Z,3.30
2018-07-03T12:12:40.562Z,3.67
2018-07-03T12:15:08.327Z,3.87
2018-07-03T12:17:36.172Z,3.13
2018-07-03T12:20:04.277Z,3.40
2018-07-03T12:22:32.119Z,3.50
2018-07-03T12:24:59.883Z,3.20
2018-07-03T12:27:27.679Z,3.40
2018-07-03T12:29:55.521Z,3.80
2018-07-03T12:32:23.376Z,4.23
2018-07-03T12:34:51.141Z,3.80
2018-07-03T12:37:19.051Z,4.20
2018-07-03T12:39:46.882Z,4.10
2018-07-03T12:42:14.640Z,3.60
2018-07-03T12:44:42.507Z,3.97
2018-07-03T12:47:10.366Z,4.40
2018-07-03T12:49:38.142Z,3.97
2018-07-03T12:52:06.032Z,4.30
2018-07-03T12:54:34.078Z,4.97
2018-07-03T12:57:01.989Z,4.10
2018-07-03T12:59:29.821Z,4.47
2018-07-03T13:01:57.615Z,4.70
2018-07-03T13:04:25.564Z,6.67
2018-07-03T13:06:53.424Z,5.77
2018-07-03T13:09:21.297Z,5.07
2018-07-03T13:11:49.196Z,5.73
2018-07-03T13:14:17.033Z,5.60
2018-07-03T13:16:44.922Z,4.83
2018-07-03T13:19:12.754Z,4.87
2018-07-03T13:21:40.559Z,5.07
2018-07-03T13:24:08.400Z,5.13
2018-07-03T13:26:36.282Z,5.60
2018-07-03T13:29:04.130Z,5.40
2018-07-03T13:31:31.907Z,5.90
2018-07-03T13:33:59.908Z,6.70
2018-07-03T13:36:27.782Z,5.87
2018-07-03T13:38:55.579Z,5.40
2018-07-03T13:41:23.356Z,5.07
2018-07-03T13:43:51.225Z,5.60
2018-07-03T13:46:19.018Z,4.60
2018-07-03T13:48:46.865Z,5.47
2018-07-03T13:51:14.853Z,5.47
2018-07-03T13:53:42.697Z,5.87
2018-07-03T13:56:10.464Z,5.27
2018-07-03T13:58:38.326Z,5.30
2018-07-03T14:01:06.093Z,4.87
2018-07-03T14:03:33.965Z,5.17
2018-07-03T14:06:01.928Z,5.00
2018-07-03T14:08:29.795Z,5.77
2018-07-03T14:10:57.563Z,5.40
2018-07-03T14:13:25.483Z,5.40
2018-07-03T14:15:53.337Z,5.50
2018-07-03T14:18:25.432Z,5.40
2018-07-03T14:20:54.263Z,5.57
2018-07-03T14:23:22.022Z,5.10
2018-07-03T14:25:50.080Z,5.90
2018-07-03T14:28:18.410Z,5.77
2018-07-03T14:30:46.430Z,5.60
2018-07-03T14:33:14.429Z,6.10
2018-07-03T14:35:42.429Z,6.07
2018-07-03T14:38:10.274Z,5.90
2018-07-03T14:40:38.128Z,5.90
2018-07-03T14:43:06.004Z,5.83
2018-07-03T14:45:33.912Z,6.90
2018-07-03T14:48:01.865Z,5.87
2018-07-03T14:50:29.479Z,5.87
2018-07-03T14:52:57.065Z,5.23
2018-07-03T14:55:24.726Z,5.97
2018-07-03T14:57:52.292Z,5.90
2018-07-03T15:00:19.973Z,6.80
2018-07-03T15:02:47.664Z,6.93
2018-07-03T15:05:15.285Z,6.30
2018-07-03T15:07:42.924Z,6.23
2018-07-03T15:10:10.546Z,6.03
2018-07-03T15:12:38.458Z,6.47
2018-07-03T15:15:06.332Z,6.37
2018-07-03T15:17:34.185Z,6.83
2018-07-03T15:20:02.976Z,6.57
2018-07-03T15:22:30.847Z,7.10
2018-07-03T15:24:58.739Z,6.30
2018-07-03T15:27:26.593Z,6.90
2018-07-03T15:29:54.437Z,6.67
2018-07-03T15:32:22.228Z,6.63
2018-07-03T15:34:50.068Z,6.23
2018-07-03T15:37:17.855Z,7.10
2018-07-03T15:39:45.802Z,7.57
2018-07-03T15:42:13.601Z,8.00
2018-07-03T15:44:46.864Z,7.33
2018-07-03T15:47:15.669Z,7.53
2018-07-03T15:49:43.457Z,8.00
2018-07-03T15:52:11.300Z,7.20
2018-07-03T15:54:39.173Z,7.13
2018-07-03T15:57:07.030Z,7.40
2018-07-03T15:59:35.104Z,6.83
2018-07-03T16:02:02.948Z,6.40
2018-07-03T16:05:01.550Z,6.93
2018-07-03T16:07:34.847Z,7.33
2018-07-03T16:10:02.709Z,6.63
2018-07-03T16:12:30.507Z,7.37
2018-07-03T16:14:58.332Z,7.17
2018-07-03T16:17:26.131Z,6.73
2018-07-03T16:19:59.142Z,6.10
2018-07-03T16:22:26.992Z,7.00
2018-07-03T16:24:54.869Z,7.27
2018-07-03T16:27:22.701Z,6.13
2018-07-03T16:29:50.494Z,6.70
2018-07-03T16:32:18.323Z,6.87
2018-07-03T16:34:46.188Z,6.10
2018-07-03T16:37:14.176Z,7.10
2018-07-03T16:39:42.030Z,6.57
2018-07-03T16:42:09.811Z,7.00
2018-07-03T16:44:37.599Z,6.10
2018-07-03T16:47:05.542Z,6.70
2018-07-03T16:49:33.200Z,7.23
2018-07-03T16:52:00.975Z,6.50
2018-07-03T16:54:28.848Z,6.40
2018-07-03T16:56:56.914Z,7.17
2018-07-03T16:59:24.802Z,6.80
2018-07-03T17:01:52.687Z,6.13
2018-07-03T17:04:20.494Z,6.23
2018-07-03T17:06:48.260Z,7.23
2018-07-03T17:09:16.269Z,6.93
2018-07-03T17:11:44.145Z,6.77
2018-07-03T17:14:12.075Z,6.57
2018-07-03T17:16:40.516Z,6.60
2018-07-03T17:19:13.436Z,6.40
2018-07-03T17:21:41.194Z,6.50
2018-07-03T17:24:08.974Z,6.50
2018-07-03T17:26:37.051Z,7.77
2018-07-03T17:29:04.825Z,7.10
2018-07-03T17:31:32.888Z,7.97
2018-07-03T17:34:00.996Z,13.50
2018-07-03T17:36:28.848Z,13.10
2018-07-03T17:38:56.789Z,11.67
2018-07-03T17:41:29.812Z,9.37
2018-07-03T17:44:03.176Z,7.87
2018-07-03T17:46:31.165Z,7.00
2018-07-03T17:48:59.014Z,6.87
2018-07-03T17:51:26.904Z,6.97
2018-07-03T17:53:54.747Z,7.57
2018-07-03T17:56:22.533Z,7.20
2018-07-03T17:58:50.377Z,7.40
2018-07-03T18:01:18.179Z,7.20
2018-07-03T18:03:45.921Z,7.53
2018-07-03T18:06:13.796Z,7.90
2018-07-03T18:08:41.668Z,8.10
2018-07-03T18:11:09.626Z,7.17
2018-07-03T18:13:37.698Z,7.90
2018-07-03T18:16:05.345Z,8.13
2018-07-03T18:18:33.143Z,8.03
2018-07-03T18:21:00.985Z,8.40
2018-07-03T18:23:28.873Z,8.77
2018-07-03T18:25:56.709Z,8.20
2018-07-03T18:28:24.600Z,7.63
2018-07-03T18:30:52.481Z,8.53
2018-07-03T18:33:20.320Z,8.23
2018-07-03T18:35:48.113Z,8.10
2018-07-03T18:38:15.767Z,8.67
2018-07-03T18:40:43.423Z,8.93
2018-07-03T18:43:11.099Z,8.70
2018-07-03T18:45:38.729Z,8.77
2018-07-03T18:48:06.326Z,8.63
2018-07-03T18:50:33.934Z,9.50
2018-07-03T18:53:01.529Z,9.30
2018-07-03T18:55:29.133Z,8.30
2018-07-03T18:57:56.924Z,9.30
2018-07-03T19:00:24.653Z,9.17
2018-07-03T19:02:52.280Z,7.97
2018-07-03T19:05:20.270Z,9.07
2018-07-03T19:07:48.140Z,9.20
2018-07-03T19:10:16.054Z,8.27
2018-07-03T19:12:43.671Z,8.30
2018-07-03T19:15:11.327Z,8.80
2018-07-03T19:17:39.014Z,8.30
2018-07-03T19:20:06.743Z,8.47
2018-07-03T19:22:34.502Z,8.00
2018-07-03T19:25:02.476Z,8.30
2018-07-03T19:27:30.134Z,8.70
2018-07-03T19:29:57.800Z,9.00
2018-07-03T19:32:25.457Z,8.43
2018-07-03T19:34:53.068Z,8.00
2018-07-03T19:37:20.689Z,8.87
2018-07-03T19:39:48.572Z,8.43
2018-07-03T19:42:16.066Z,8.60
2018-07-03T19:44:43.672Z,8.30
2018-07-03T19:47:11.380Z,7.73
2018-07-03T19:49:39.073Z,8.60
2018-07-03T19:52:06.690Z,8.20
2018-07-03T19:54:34.310Z,7.83
2018-07-03T19:57:01.928Z,8.10
2018-07-03T19:59:29.544Z,9.40
2018-07-03T20:01:57.214Z,8.17
2018-07-03T20:04:24.805Z,8.60
2018-07-03T20:06:52.624Z,9.17
2018-07-03T20:09:20.286Z,8.13
2018-07-03T20:11:47.901Z,9.00
2018-07-03T20:14:15.502Z,8.53
2018-07-03T20:16:43.191Z,8.30
2018-07-03T20:19:15.042Z,8.53
2018-07-03T20:21:44.112Z,8.27
2018-07-03T20:24:11.819Z,8.63
2018-07-03T20:26:39.897Z,9.50
2018-07-03T20:29:07.621Z,9.03
2018-07-03T20:31:35.320Z,8.93
2018-07-03T20:34:03.185Z,8.93
2018-07-03T20:36:30.839Z,9.20
2018-07-03T20:38:58.496Z,9.13
2018-07-03T20:41:26.178Z,8.53
2018-07-03T20:43:53.836Z,8.60
2018-07-03T20:46:21.476Z,7.87
2018-07-03T20:48:49.122Z,8.87
2018-07-03T20:51:16.752Z,8.77
2018-07-03T20:53:44.355Z,8.03
2018-07-03T20:56:12.030Z,8.73
2018-07-03T20:58:39.608Z,8.80
2018-07-03T21:01:07.238Z,8.93
2018-07-03T21:03:35.135Z,9.40
2018-07-03T21:06:09.640Z,9.00
2018-07-03T21:08:37.416Z,8.37
2018-07-03T21:11:05.279Z,8.63
2018-07-03T21:13:33.242Z,8.87
2018-07-03T21:16:01.118Z,8.40
2018-07-03T21:18:29.009Z,8.40
2018-07-03T21:20:56.887Z,8.20
2018-07-03T21:23:24.730Z,8.40
2018-07-03T21:25:52.618Z,8.10
2018-07-03T21:28:20.562Z,8.50
2018-07-03T21:30:48.418Z,8.13
2018-07-03T21:33:16.376Z,8.70
2018-07-03T21:35:44.448Z,8.70
2018-07-03T21:38:12.977Z,9.03
2018-07-03T21:40:40.800Z,9.10
2018-07-03T21:43:08.679Z,8.27
2018-07-03T21:45:36.547Z,8.30
2018-07-03T21:48:04.321Z,8.10
2018-07-03T21:50:32.161Z,8.03
2018-07-03T21:52:59.965Z,8.73
2018-07-03T21:55:42.737Z,8.43
2018-07-03T21:58:10.542Z,8.30
2018-07-03T22:00:42.724Z,8.50
2018-07-03T22:06:21.929Z,8.47
2018-07-03T22:11:48.196Z,9.27
2018-07-03T22:14:16.029Z,9.33
2018-07-03T22:16:43.905Z,9.30
2018-07-03T22:19:11.663Z,9.43
2018-07-03T22:21:39.609Z,9.23
2018-07-03T22:24:13.861Z,8.57
2018-07-03T22:26:42.129Z,8.40
2018-07-03T22:29:11.741Z,9.33
2018-07-03T22:31:40.579Z,8.50
2018-07-03T22:34:09.400Z,9.27
2018-07-03T22:36:37.439Z,9.80
2018-07-03T22:39:07.042Z,9.60
2018-07-03T22:41:36.672Z,9.03
2018-07-03T22:44:05.344Z,9.07
2018-07-03T22:46:36.811Z,9.30
2018-07-03T22:49:05.399Z,9.33
2018-07-03T22:51:34.188Z,9.90
2018-07-03T22:54:02.716Z,8.87
2018-07-03T22:56:30.607Z,10.43
2018-07-03T22:59:00.471Z,9.57
2018-07-03T23:01:29.366Z,9.23
2018-07-03T23:03:59.201Z,9.37
2018-07-03T23:06:29.053Z,9.60
2018-07-03T23:09:02.663Z,9.23
2018-07-03T23:11:30.617Z,9.43
2018-07-03T23:13:58.697Z,9.30
2018-07-03T23:16:28.215Z,10.03
2018-07-03T23:18:56.060Z,9.63
2018-07-03T23:21:24.277Z,9.30
2018-07-03T23:23:54.157Z,9.90
2018-07-03T23:26:23.780Z,9.77
2018-07-03T23:28:52.548Z,9.57
2018-07-03T23:31:20.488Z,10.80
2018-07-03T23:33:48.581Z,9.17
2018-07-03T23:36:16.532Z,10.30
2018-07-03T23:38:44.432Z,10.43
2018-07-03T23:41:12.692Z,9.60
2018-07-03T23:43:40.606Z,10.03
2018-07-03T23:46:08.189Z,10.10
2018-07-03T23:48:41.952Z,9.90
2018-07-03T23:51:16.887Z,10.23
2018-07-03T23:53:50.282Z,11.50
2018-07-03T23:56:24.472Z,11.90
2018-07-03T23:58:57.802Z,10.63
